createdAt,value
2018-08-25T00:00:06.477Z,0.00
2018-08-25T00:01:06.433Z,0.00
2018-08-25T00:02:06.400Z,0.00
2018-08-25T00:03:06.361Z,0.00
2018-08-25T00:04:06.339Z,0.00
2018-08-25T00:05:06.290Z,0.00
2018-08-25T00:06:06.249Z,0.00
2018-08-25T00:07:06.212Z,0.00
2018-08-25T00:08:06.171Z,0.00
2018-08-25T00:09:06.145Z,0.00
2018-08-25T00:10:06.093Z,0.00
2018-08-25T00:11:06.051Z,0.00
2018-08-25T00:12:06.012Z,0.00
2018-08-25T00:13:05.980Z,0.00
2018-08-25T00:14:05.967Z,0.00
2018-08-25T00:15:05.902Z,0.00
2018-08-25T00:16:05.856Z,0.00
2018-08-25T00:17:05.829Z,0.00
2018-08-25T00:18:05.795Z,0.00
2018-08-25T00:19:05.770Z,0.00
2018-08-25T00:20:05.712Z,0.00
2018-08-25T00:21:05.665Z,0.00
2018-08-25T00:22:05.633Z,0.00
2018-08-25T00:23:05.586Z,0.00
2018-08-25T00:24:05.598Z,0.00
2018-08-25T00:25:05.522Z,0.00
2018-08-25T00:26:05.481Z,0.00
2018-08-25T00:27:05.442Z,0.00
2018-08-25T00:28:05.406Z,0.00
2018-08-25T00:29:05.358Z,0.00
2018-08-25T00:30:05.339Z,0.00
2018-08-25T00:31:05.284Z,0.00
2018-08-25T00:32:05.250Z,0.00
2018-08-25T00:33:05.205Z,0.00
2018-08-25T00:34:05.193Z,0.00
2018-08-25T00:35:05.128Z,0.00
2018-08-25T00:36:05.089Z,0.00
2018-08-25T00:37:05.060Z,0.00
2018-08-25T00:38:05.018Z,0.00
2018-08-25T00:39:04.983Z,0.00
2018-08-25T00:40:04.964Z,0.00
2018-08-25T00:41:04.895Z,0.00
2018-08-25T00:42:14.885Z,0.00
2018-08-25T00:43:04.829Z,0.00
2018-08-25T00:44:04.790Z,0.00
2018-08-25T00:45:04.765Z,0.00
2018-08-25T00:46:04.706Z,0.00
2018-08-25T00:47:04.675Z,0.00
2018-08-25T00:48:04.632Z,0.00
2018-08-25T00:49:04.600Z,0.00
2018-08-25T00:50:04.583Z,0.00
2018-08-25T00:51:04.512Z,0.00
2018-08-25T00:52:04.480Z,0.00
2018-08-25T00:53:04.433Z,0.00
2018-08-25T00:54:04.396Z,0.00
2018-08-25T00:55:04.395Z,0.00
2018-08-25T00:56:04.329Z,0.00
2018-08-25T00:57:04.288Z,0.00
2018-08-25T00:58:04.248Z,0.00
2018-08-25T00:59:04.210Z,0.00
2018-08-25T01:00:04.165Z,0.00
2018-08-25T01:01:04.159Z,0.00
2018-08-25T01:02:04.095Z,0.00
2018-08-25T01:03:04.056Z,0.00
2018-08-25T01:04:04.012Z,0.00
2018-08-25T01:05:03.977Z,0.00
2018-08-25T01:06:03.957Z,0.00
2018-08-25T01:07:03.905Z,0.00
2018-08-25T01:08:03.865Z,0.00
2018-08-25T01:09:03.826Z,0.00
2018-08-25T01:10:03.798Z,0.00
2018-08-25T01:11:03.765Z,0.00
2018-08-25T01:12:03.705Z,0.00
2018-08-25T01:13:03.664Z,0.00
2018-08-25T01:14:03.623Z,0.00
2018-08-25T01:15:03.592Z,0.00
2018-08-25T01:16:03.592Z,0.00
2018-08-25T01:17:03.510Z,0.00
2018-08-25T01:18:03.471Z,0.00
2018-08-25T01:19:03.441Z,0.00
2018-08-25T01:20:03.403Z,0.00
2018-08-25T01:21:03.365Z,0.00
2018-08-25T01:22:03.348Z,0.00
2018-08-25T01:23:03.281Z,0.00
2018-08-25T01:24:03.244Z,0.00
2018-08-25T01:25:03.212Z,0.00
2018-08-25T01:26:03.179Z,0.00
2018-08-25T01:27:03.145Z,0.00
2018-08-25T01:28:03.090Z,0.00
2018-08-25T01:29:03.050Z,0.00
2018-08-25T01:30:03.012Z,0.00
2018-08-25T01:31:02.981Z,0.00
2018-08-25T01:32:02.966Z,0.00
2018-08-25T01:33:02.894Z,0.00
2018-08-25T01:34:02.855Z,0.00
2018-08-25T01:35:02.828Z,0.00
2018-08-25T01:36:02.785Z,0.00
2018-08-25T01:37:02.751Z,0.00
2018-08-25T01:38:02.775Z,0.00
2018-08-25T01:39:02.663Z,0.00
2018-08-25T01:40:02.624Z,0.00
2018-08-25T01:41:02.596Z,0.00
2018-08-25T01:42:02.544Z,0.00
2018-08-25T01:43:02.548Z,0.00
2018-08-25T01:44:02.480Z,0.00
2018-08-25T01:45:02.444Z,0.00
2018-08-25T01:46:02.408Z,0.00
2018-08-25T01:47:02.358Z,0.00
2018-08-25T01:48:02.341Z,0.00
2018-08-25T01:49:02.284Z,0.00
2018-08-25T01:50:02.249Z,0.00
2018-08-25T01:51:02.202Z,0.00
2018-08-25T01:52:02.159Z,0.00
2018-08-25T01:53:02.153Z,0.00
2018-08-25T01:54:02.090Z,0.00
2018-08-25T01:55:02.060Z,0.00
2018-08-25T01:56:02.017Z,0.00
2018-08-25T01:57:01.983Z,0.00
2018-08-25T01:58:01.966Z,0.00
2018-08-25T01:59:01.899Z,0.00
2018-08-25T02:00:01.857Z,0.00
2018-08-25T02:01:01.821Z,0.00
2018-08-25T02:02:01.780Z,0.00
2018-08-25T02:03:01.768Z,0.00
2018-08-25T02:04:01.712Z,0.00
2018-08-25T02:05:01.662Z,0.00
2018-08-25T02:06:01.639Z,0.00
2018-08-25T02:07:01.595Z,0.00
2018-08-25T02:08:01.582Z,0.00
2018-08-25T02:09:01.527Z,0.00
2018-08-25T02:10:01.478Z,0.00
2018-08-25T02:11:01.433Z,0.00
2018-08-25T02:12:01.394Z,0.00
2018-08-25T02:13:01.355Z,0.00
2018-08-25T02:14:01.341Z,0.00
2018-08-25T02:15:01.290Z,0.00
2018-08-25T02:16:01.251Z,0.00
2018-08-25T02:17:01.208Z,0.00
2018-08-25T02:18:01.202Z,0.00
2018-08-25T02:19:01.131Z,0.00
2018-08-25T02:20:01.092Z,0.00
2018-08-25T02:21:01.055Z,0.00
2018-08-25T02:22:01.016Z,0.00
2018-08-25T02:23:00.973Z,0.00
2018-08-25T02:24:00.952Z,0.00
2018-08-25T02:25:00.898Z,0.00
2018-08-25T02:26:00.858Z,0.00
2018-08-25T02:27:00.826Z,0.00
2018-08-25T02:28:00.787Z,0.00
2018-08-25T02:29:00.764Z,0.00
2018-08-25T02:30:00.713Z,0.00
2018-08-25T02:31:00.661Z,0.00
2018-08-25T02:32:00.621Z,0.00
2018-08-25T02:33:00.595Z,0.00
2018-08-25T02:34:00.570Z,0.00
2018-08-25T02:35:00.515Z,0.00
2018-08-25T02:36:00.477Z,0.00
2018-08-25T02:37:00.434Z,0.00
2018-08-25T02:38:00.390Z,0.00
2018-08-25T02:39:00.384Z,0.00
2018-08-25T02:40:00.322Z,0.00
2018-08-25T02:41:00.281Z,0.00
2018-08-25T02:42:00.241Z,0.00
2018-08-25T02:43:00.199Z,0.00
2018-08-25T02:44:00.189Z,0.00
2018-08-25T02:45:00.126Z,0.00
2018-08-25T02:46:00.081Z,0.00
2018-08-25T02:47:00.048Z,0.00
2018-08-25T02:48:00.012Z,0.00
2018-08-25T02:48:59.975Z,0.00
2018-08-25T02:49:59.962Z,0.00
2018-08-25T02:50:59.885Z,0.00
2018-08-25T02:51:59.856Z,0.00
2018-08-25T02:52:59.818Z,0.00
2018-08-25T02:53:59.781Z,0.00
2018-08-25T02:54:59.760Z,0.00
2018-08-25T02:55:59.695Z,0.00
2018-08-25T02:56:59.656Z,0.00
2018-08-25T02:57:59.620Z,0.00
2018-08-25T02:58:59.583Z,0.00
2018-08-25T02:59:59.567Z,0.00
2018-08-25T03:00:59.506Z,0.00
2018-08-25T03:01:59.465Z,0.00
2018-08-25T03:02:59.426Z,0.00
2018-08-25T03:03:59.384Z,0.00
2018-08-25T03:04:59.365Z,0.00
2018-08-25T03:05:59.306Z,0.00
2018-08-25T03:06:59.276Z,0.00
2018-08-25T03:07:59.245Z,0.00
2018-08-25T03:08:59.187Z,0.00
2018-08-25T03:09:59.170Z,0.00
2018-08-25T03:10:59.118Z,0.00
2018-08-25T03:11:59.077Z,0.00
2018-08-25T03:12:59.036Z,0.00
2018-08-25T03:13:58.996Z,0.00
2018-08-25T03:14:58.974Z,0.00
2018-08-25T03:15:58.913Z,0.00
2018-08-25T03:16:58.871Z,0.00
2018-08-25T03:17:58.833Z,0.00
2018-08-25T03:18:58.801Z,0.00
2018-08-25T03:19:58.786Z,0.00
2018-08-25T03:20:58.761Z,0.00
2018-08-25T03:21:58.682Z,0.00
2018-08-25T03:22:58.635Z,0.00
2018-08-25T03:23:58.604Z,0.00
2018-08-25T03:24:58.563Z,0.00
2018-08-25T03:25:58.545Z,0.00
2018-08-25T03:26:58.477Z,0.00
2018-08-25T03:27:58.437Z,0.00
2018-08-25T03:28:58.398Z,0.00
2018-08-25T03:29:58.357Z,0.00
2018-08-25T03:30:58.344Z,0.00
2018-08-25T03:31:58.284Z,0.00
2018-08-25T03:32:58.244Z,0.00
2018-08-25T03:33:58.208Z,0.00
2018-08-25T03:34:58.154Z,0.00
2018-08-25T03:35:58.153Z,0.00
2018-08-25T03:36:58.080Z,0.00
2018-08-25T03:37:58.042Z,0.00
2018-08-25T03:38:58.004Z,0.00
2018-08-25T03:39:57.968Z,0.00
2018-08-25T03:40:57.922Z,0.00
2018-08-25T03:41:57.903Z,0.00
2018-08-25T03:42:57.848Z,0.00
2018-08-25T03:43:57.808Z,0.00
2018-08-25T03:44:57.771Z,0.00
2018-08-25T03:45:57.730Z,0.00
2018-08-25T03:46:57.706Z,0.00
2018-08-25T03:47:57.640Z,0.00
2018-08-25T03:48:57.601Z,0.00
2018-08-25T03:49:57.561Z,0.00
2018-08-25T03:50:57.534Z,0.00
2018-08-25T03:51:57.513Z,0.00
2018-08-25T03:52:57.449Z,0.00
2018-08-25T03:53:57.415Z,0.00
2018-08-25T03:54:57.363Z,0.00
2018-08-25T03:55:57.324Z,0.00
2018-08-25T03:56:57.315Z,0.00
2018-08-25T03:57:57.249Z,0.00
2018-08-25T03:58:57.203Z,0.00
2018-08-25T03:59:57.160Z,0.00
2018-08-25T04:00:57.122Z,0.00
2018-08-25T04:01:57.094Z,0.00
2018-08-25T04:02:57.074Z,0.00
2018-08-25T04:03:57.009Z,0.00
2018-08-25T04:05:07.470Z,0.00
2018-08-25T04:05:56.920Z,0.00
2018-08-25T04:06:56.885Z,0.00
2018-08-25T04:07:56.863Z,0.00
2018-08-25T04:08:56.810Z,0.00
2018-08-25T04:09:56.766Z,0.00
2018-08-25T04:10:56.721Z,4.00
2018-08-25T04:11:56.682Z,4.00
2018-08-25T04:12:56.670Z,4.00
2018-08-25T04:13:56.608Z,4.00
2018-08-25T04:14:56.604Z,4.00
2018-08-25T04:15:56.525Z,8.00
2018-08-25T04:16:56.486Z,8.00
2018-08-25T04:17:56.465Z,8.00
2018-08-25T04:18:56.401Z,8.00
2018-08-25T04:19:56.365Z,8.00
2018-08-25T04:20:56.326Z,12.00
2018-08-25T04:21:56.287Z,16.00
2018-08-25T04:22:56.274Z,20.00
2018-08-25T04:23:56.206Z,20.00
2018-08-25T04:24:56.159Z,12.00
2018-08-25T04:25:56.122Z,16.00
2018-08-25T04:26:56.088Z,24.00
2018-08-25T04:27:56.067Z,28.00
2018-08-25T04:28:56.002Z,32.00
2018-08-25T04:29:55.962Z,32.00
2018-08-25T04:30:55.921Z,40.00
2018-08-25T04:31:55.882Z,36.00
2018-08-25T04:32:55.873Z,24.00
2018-08-25T04:33:55.806Z,24.00
2018-08-25T04:34:55.766Z,40.00
2018-08-25T04:35:55.729Z,36.00
2018-08-25T04:36:55.680Z,44.00
2018-08-25T04:37:55.648Z,44.00
2018-08-25T04:38:55.632Z,44.00
2018-08-25T04:39:55.558Z,44.00
2018-08-25T04:40:55.533Z,56.00
2018-08-25T04:41:55.490Z,72.00
2018-08-25T04:43:06.519Z,104.00
2018-08-25T04:43:55.430Z,112.00
2018-08-25T04:44:55.373Z,156.00
2018-08-25T04:45:55.325Z,168.00
2018-08-25T04:46:55.285Z,180.00
2018-08-25T04:47:55.238Z,184.00
2018-08-25T04:48:55.222Z,156.00
2018-08-25T04:49:55.159Z,144.00
2018-08-25T04:50:55.123Z,144.00
2018-08-25T04:51:55.093Z,128.00
2018-08-25T04:52:55.048Z,136.00
2018-08-25T04:53:55.028Z,136.00
2018-08-25T04:54:54.956Z,156.00
2018-08-25T04:55:54.916Z,176.00
2018-08-25T04:56:54.885Z,316.00
2018-08-25T04:57:54.849Z,452.00
2018-08-25T04:58:54.827Z,612.00
2018-08-25T04:59:54.757Z,692.00
2018-08-25T05:01:06.059Z,800.00
2018-08-25T05:01:54.750Z,912.00
2018-08-25T05:02:54.648Z,944.00
2018-08-25T05:03:54.626Z,992.00
2018-08-25T05:04:54.560Z,928.00
2018-08-25T05:05:54.518Z,964.00
2018-08-25T05:06:54.475Z,1276.00
2018-08-25T05:07:54.440Z,1448.00
2018-08-25T05:08:54.430Z,1452.00
2018-08-25T05:09:54.364Z,1572.00
2018-08-25T05:10:54.347Z,1440.00
2018-08-25T05:11:54.274Z,1768.00
2018-08-25T05:12:54.239Z,1732.00
2018-08-25T05:13:54.206Z,1936.00
2018-08-25T05:14:54.185Z,2088.00
2018-08-25T05:15:54.127Z,2100.00
2018-08-25T05:16:54.078Z,2284.00
2018-08-25T05:17:54.037Z,2448.00
2018-08-25T05:18:53.994Z,2484.00
2018-08-25T05:20:03.615Z,2528.00
2018-08-25T05:20:53.920Z,2708.00
2018-08-25T05:21:53.964Z,2824.00
2018-08-25T05:22:53.833Z,3040.00
2018-08-25T05:23:53.794Z,3076.00
2018-08-25T05:24:53.786Z,3040.00
2018-08-25T05:25:53.722Z,3832.00
2018-08-25T05:26:53.676Z,3732.00
2018-08-25T05:27:53.631Z,4236.00
2018-08-25T05:28:53.593Z,3512.00
2018-08-25T05:29:53.552Z,3508.00
2018-08-25T05:30:53.541Z,5424.00
2018-08-25T05:31:53.479Z,4504.00
2018-08-25T05:32:53.437Z,5444.00
2018-08-25T05:33:53.410Z,5424.00
2018-08-25T05:34:53.365Z,5508.00
2018-08-25T05:35:53.348Z,6576.00
2018-08-25T05:36:53.273Z,11548.00
2018-08-25T05:37:53.236Z,6716.00
2018-08-25T05:39:03.628Z,5772.00
2018-08-25T05:39:53.156Z,4960.00
2018-08-25T05:40:53.140Z,3820.00
2018-08-25T05:41:53.080Z,2832.00
2018-08-25T05:42:53.041Z,2672.00
2018-08-25T05:43:52.999Z,2052.00
2018-08-25T05:44:52.953Z,2000.00
2018-08-25T05:45:52.938Z,2480.00
2018-08-25T05:46:52.877Z,2364.00
2018-08-25T05:47:52.833Z,2440.00
2018-08-25T05:48:52.802Z,2864.00
2018-08-25T05:49:52.773Z,3676.00
2018-08-25T05:50:52.725Z,4788.00
2018-08-25T05:51:52.707Z,6220.00
2018-08-25T05:52:52.638Z,6264.00
2018-08-25T05:53:52.636Z,5876.00
2018-08-25T05:54:52.563Z,5184.00
2018-08-25T05:55:52.522Z,4424.00
2018-08-25T05:56:52.498Z,4172.00
2018-08-25T05:57:52.439Z,4628.00
2018-08-25T05:58:52.401Z,5064.00
2018-08-25T05:59:52.362Z,5676.00
2018-08-25T06:00:52.326Z,6204.00
2018-08-25T06:01:52.314Z,7472.00
2018-08-25T06:02:52.250Z,9476.00
2018-08-25T06:03:52.208Z,8416.00
2018-08-25T06:04:52.169Z,8756.00
2018-08-25T06:05:52.129Z,9552.00
2018-08-25T06:06:52.081Z,10216.00
2018-08-25T06:07:52.067Z,11904.00
2018-08-25T06:08:52.017Z,9932.00
2018-08-25T06:09:51.973Z,9236.00
2018-08-25T06:10:51.927Z,7600.00
2018-08-25T06:11:51.886Z,9412.00
2018-08-25T06:12:51.879Z,9712.00
2018-08-25T06:13:51.818Z,10560.00
2018-08-25T06:14:51.774Z,10160.00
2018-08-25T06:15:51.740Z,9296.00
2018-08-25T06:17:02.168Z,9656.00
2018-08-25T06:17:51.679Z,7932.00
2018-08-25T06:18:51.621Z,6516.00
2018-08-25T06:19:51.580Z,6792.00
2018-08-25T06:20:51.542Z,6868.00
2018-08-25T06:21:51.503Z,7380.00
2018-08-25T06:22:51.456Z,7984.00
2018-08-25T06:23:51.440Z,6120.00
2018-08-25T06:24:51.384Z,8032.00
2018-08-25T06:25:51.349Z,9380.00
2018-08-25T06:26:51.300Z,9652.00
2018-08-25T06:27:51.262Z,8968.00
2018-08-25T06:28:51.245Z,7976.00
2018-08-25T06:29:51.266Z,9728.00
2018-08-25T06:30:51.150Z,7584.00
2018-08-25T06:31:51.114Z,6716.00
2018-08-25T06:32:51.079Z,8204.00
2018-08-25T06:33:51.061Z,7776.00
2018-08-25T06:34:50.989Z,7108.00
2018-08-25T06:36:00.251Z,6116.00
2018-08-25T06:36:50.920Z,4620.00
2018-08-25T06:37:50.880Z,5760.00
2018-08-25T06:38:50.860Z,6072.00
2018-08-25T06:39:50.797Z,6708.00
2018-08-25T06:40:50.768Z,7716.00
2018-08-25T06:41:50.723Z,9692.00
2018-08-25T06:42:50.687Z,10468.00
2018-08-25T06:43:50.648Z,11308.00
2018-08-25T06:44:50.621Z,11668.00
2018-08-25T06:45:50.560Z,17056.00
2018-08-25T06:46:50.526Z,16192.00
2018-08-25T06:47:50.485Z,10152.00
2018-08-25T06:48:50.455Z,8948.00
2018-08-25T06:49:50.436Z,9368.00
2018-08-25T06:50:50.374Z,7852.00
2018-08-25T06:51:50.335Z,8792.00
2018-08-25T06:52:50.293Z,12712.00
2018-08-25T06:53:59.769Z,27456.00
2018-08-25T06:54:50.241Z,22016.00
2018-08-25T06:55:50.174Z,9152.00
2018-08-25T06:56:50.136Z,9020.00
2018-08-25T06:57:50.100Z,8228.00
2018-08-25T06:58:50.064Z,8196.00
2018-08-25T06:59:50.027Z,9800.00
2018-08-25T07:00:50.011Z,10716.00
2018-08-25T07:01:49.949Z,10036.00
2018-08-25T07:02:49.905Z,8932.00
2018-08-25T07:03:49.868Z,8868.00
2018-08-25T07:04:49.834Z,7384.00
2018-08-25T07:05:49.830Z,7296.00
2018-08-25T07:06:49.771Z,8600.00
2018-08-25T07:07:49.719Z,13248.00
2018-08-25T07:08:49.673Z,8400.00
2018-08-25T07:09:49.636Z,9184.00
2018-08-25T07:10:49.608Z,10928.00
2018-08-25T07:11:49.596Z,7952.00
2018-08-25T07:12:49.550Z,7400.00
2018-08-25T07:13:49.497Z,8368.00
2018-08-25T07:14:49.441Z,9632.00
2018-08-25T07:15:49.406Z,12400.00
2018-08-25T07:16:49.389Z,13168.00
2018-08-25T07:17:49.332Z,9944.00
2018-08-25T07:18:49.353Z,7528.00
2018-08-25T07:19:49.265Z,8680.00
2018-08-25T07:20:49.225Z,8752.00
2018-08-25T07:21:49.208Z,7012.00
2018-08-25T07:22:49.137Z,6020.00
2018-08-25T07:23:49.101Z,8000.00
2018-08-25T07:24:49.069Z,9208.00
2018-08-25T07:25:49.088Z,8856.00
2018-08-25T07:26:49.011Z,7668.00
2018-08-25T07:27:48.947Z,9484.00
2018-08-25T07:28:48.912Z,9024.00
2018-08-25T07:29:48.872Z,7052.00
2018-08-25T07:30:48.839Z,7008.00
2018-08-25T07:31:58.846Z,7072.00
2018-08-25T07:32:48.755Z,9920.00
2018-08-25T07:33:48.719Z,12480.00
2018-08-25T07:34:48.681Z,9016.00
2018-08-25T07:35:48.638Z,6228.00
2018-08-25T07:36:48.609Z,6588.00
2018-08-25T07:37:48.592Z,7124.00
2018-08-25T07:38:48.519Z,8788.00
2018-08-25T07:39:48.482Z,10184.00
2018-08-25T07:40:48.452Z,9356.00
2018-08-25T07:41:48.423Z,8564.00
2018-08-25T07:42:48.396Z,12876.00
2018-08-25T07:43:48.386Z,16976.00
2018-08-25T07:44:48.294Z,13484.00
2018-08-25T07:45:48.255Z,16040.00
2018-08-25T07:46:48.214Z,19040.00
2018-08-25T07:47:48.201Z,26048.00
2018-08-25T07:48:48.140Z,13056.00
2018-08-25T07:49:48.106Z,13308.00
2018-08-25T07:50:48.073Z,11704.00
2018-08-25T07:51:48.029Z,15116.00
2018-08-25T07:52:48.037Z,22400.00
2018-08-25T07:53:48.046Z,11880.00
2018-08-25T07:54:47.921Z,13556.00
2018-08-25T07:55:47.895Z,14672.00
2018-08-25T07:56:47.832Z,21280.00
2018-08-25T07:57:47.819Z,21888.00
2018-08-25T07:58:47.779Z,12424.00
2018-08-25T07:59:47.727Z,10512.00
2018-08-25T08:00:47.698Z,15520.00
2018-08-25T08:01:47.682Z,36576.00
2018-08-25T08:02:47.609Z,19200.00
2018-08-25T08:03:47.614Z,15496.00
2018-08-25T08:04:47.610Z,20544.00
2018-08-25T08:05:47.511Z,21856.00
2018-08-25T08:06:57.855Z,21536.00
2018-08-25T08:07:47.426Z,21664.00
2018-08-25T08:08:47.393Z,17504.00
2018-08-25T08:09:47.371Z,15580.00
2018-08-25T08:10:47.311Z,12860.00
2018-08-25T08:11:47.281Z,12644.00
2018-08-25T08:12:47.241Z,15328.00
2018-08-25T08:13:47.202Z,19616.00
2018-08-25T08:14:47.180Z,21632.00
2018-08-25T08:15:47.121Z,20704.00
2018-08-25T08:16:47.082Z,19552.00
2018-08-25T08:17:47.046Z,21760.00
2018-08-25T08:18:47.015Z,20096.00
2018-08-25T08:19:46.998Z,17568.00
2018-08-25T08:20:46.944Z,17280.00
2018-08-25T08:21:46.909Z,17344.00
2018-08-25T08:22:46.861Z,18144.00
2018-08-25T08:23:46.823Z,15724.00
2018-08-25T08:24:46.815Z,10252.00
2018-08-25T08:25:46.758Z,10328.00
2018-08-25T08:26:46.714Z,13256.00
2018-08-25T08:27:46.677Z,14316.00
2018-08-25T08:28:46.639Z,15468.00
2018-08-25T08:29:46.633Z,16908.00
2018-08-25T08:30:46.582Z,18976.00
2018-08-25T08:31:46.538Z,21056.00
2018-08-25T08:32:47.037Z,23264.00
2018-08-25T08:33:46.527Z,28256.00
2018-08-25T08:34:46.433Z,38560.00
2018-08-25T08:35:46.409Z,28512.00
2018-08-25T08:36:46.345Z,27360.00
2018-08-25T08:37:46.308Z,26720.00
2018-08-25T08:38:46.289Z,27456.00
2018-08-25T08:39:46.241Z,26656.00
2018-08-25T08:40:46.222Z,23744.00
2018-08-25T08:41:46.163Z,22720.00
2018-08-25T08:42:46.129Z,22080.00
2018-08-25T08:43:46.107Z,21472.00
2018-08-25T08:44:46.060Z,21856.00
2018-08-25T08:45:46.030Z,23264.00
2018-08-25T08:46:45.997Z,21856.00
2018-08-25T08:47:45.943Z,18208.00
2018-08-25T08:48:45.909Z,20736.00
2018-08-25T08:49:47.115Z,28320.00
2018-08-25T08:50:45.863Z,24128.00
2018-08-25T08:51:45.808Z,27072.00
2018-08-25T08:52:45.767Z,13804.00
2018-08-25T08:53:45.735Z,14032.00
2018-08-25T08:54:45.704Z,14776.00
2018-08-25T08:55:45.676Z,13440.00
2018-08-25T08:56:45.623Z,12356.00
2018-08-25T08:57:45.587Z,14576.00
2018-08-25T08:58:45.545Z,18176.00
2018-08-25T08:59:45.511Z,33824.00
2018-08-25T09:00:55.417Z,17888.00
2018-08-25T09:01:45.444Z,21184.00
2018-08-25T09:02:45.407Z,15280.00
2018-08-25T09:03:45.371Z,15700.00
2018-08-25T09:04:45.330Z,16728.00
2018-08-25T09:05:45.295Z,18784.00
2018-08-25T09:06:45.280Z,21408.00
2018-08-25T09:07:45.223Z,16340.00
2018-08-25T09:08:45.194Z,12624.00
2018-08-25T09:09:45.157Z,13224.00
2018-08-25T09:10:45.133Z,13280.00
2018-08-25T09:11:45.131Z,16896.00
2018-08-25T09:12:45.050Z,19264.00
2018-08-25T09:13:45.014Z,17760.00
2018-08-25T09:14:44.983Z,18368.00
2018-08-25T09:15:44.967Z,52128.00
2018-08-25T09:16:44.897Z,42560.00
2018-08-25T09:17:44.863Z,35488.00
2018-08-25T09:18:44.825Z,27456.00
2018-08-25T09:19:44.787Z,27968.00
2018-08-25T09:20:44.764Z,31264.00
2018-08-25T09:21:44.748Z,32192.00
2018-08-25T09:22:44.690Z,16356.00
2018-08-25T09:23:44.653Z,15312.00
2018-08-25T09:24:44.610Z,17632.00
2018-08-25T09:25:44.577Z,20256.00
2018-08-25T09:26:44.575Z,20736.00
2018-08-25T09:27:44.512Z,20800.00
2018-08-25T09:28:44.471Z,20896.00
2018-08-25T09:29:44.440Z,21440.00
2018-08-25T09:30:44.400Z,21888.00
2018-08-25T09:31:44.395Z,19296.00
2018-08-25T09:32:44.339Z,18176.00
2018-08-25T09:33:44.307Z,43712.00
2018-08-25T09:34:44.272Z,27904.00
2018-08-25T09:35:44.280Z,25856.00
2018-08-25T09:36:44.301Z,19040.00
2018-08-25T09:37:44.186Z,12952.00
2018-08-25T09:38:44.128Z,13136.00
2018-08-25T09:39:44.095Z,52512.00
2018-08-25T09:40:44.051Z,37216.00
2018-08-25T09:41:44.106Z,29728.00
2018-08-25T09:42:43.991Z,22816.00
2018-08-25T09:43:43.953Z,20608.00
2018-08-25T09:44:43.911Z,21760.00
2018-08-25T09:45:43.883Z,28480.00
2018-08-25T09:46:43.841Z,55360.00
2018-08-25T09:47:43.830Z,46336.00
2018-08-25T09:48:43.782Z,30624.00
2018-08-25T09:49:43.750Z,23008.00
2018-08-25T09:50:43.714Z,37728.00
2018-08-25T09:51:43.775Z,18496.00
2018-08-25T09:52:43.662Z,20896.00
2018-08-25T09:53:53.941Z,30944.00
2018-08-25T09:54:43.583Z,49120.00
2018-08-25T09:55:43.545Z,48736.00
2018-08-25T09:56:43.507Z,51744.00
2018-08-25T09:57:43.493Z,22304.00
2018-08-25T09:58:43.444Z,21440.00
2018-08-25T09:59:43.416Z,50400.00
2018-08-25T10:00:43.380Z,18048.00
2018-08-25T10:01:43.344Z,16504.00
2018-08-25T10:02:43.327Z,18176.00
2018-08-25T10:03:43.272Z,14952.00
2018-08-25T10:04:43.243Z,16344.00
2018-08-25T10:05:43.204Z,30880.00
2018-08-25T10:06:43.182Z,51072.00
2018-08-25T10:07:43.179Z,27136.00
2018-08-25T10:08:43.121Z,46912.00
2018-08-25T10:09:43.080Z,46944.00
2018-08-25T10:10:43.077Z,46240.00
2018-08-25T10:11:43.008Z,24032.00
2018-08-25T10:12:42.982Z,48672.00
2018-08-25T10:13:53.496Z,49216.00
2018-08-25T10:14:42.912Z,50272.00
2018-08-25T10:15:42.878Z,49760.00
2018-08-25T10:16:42.896Z,16408.00
2018-08-25T10:17:42.820Z,14420.00
2018-08-25T10:18:42.809Z,14532.00
2018-08-25T10:19:42.757Z,14956.00
2018-08-25T10:20:42.717Z,42528.00
2018-08-25T10:21:42.688Z,49664.00
2018-08-25T10:22:42.654Z,53888.00
2018-08-25T10:23:42.690Z,55392.00
2018-08-25T10:24:42.601Z,24064.00
2018-08-25T10:25:42.566Z,20128.00
2018-08-25T10:26:42.527Z,46976.00
2018-08-25T10:27:42.496Z,35456.00
2018-08-25T10:28:42.471Z,16380.00
2018-08-25T10:29:42.466Z,52224.00
2018-08-25T10:30:42.407Z,27456.00
2018-08-25T10:31:42.376Z,47584.00
2018-08-25T10:32:42.336Z,46496.00
2018-08-25T10:33:42.305Z,47104.00
2018-08-25T10:34:42.297Z,49760.00
2018-08-25T10:35:42.292Z,48544.00
2018-08-25T10:36:42.219Z,49888.00
2018-08-25T10:37:42.185Z,51680.00
2018-08-25T10:38:42.151Z,15864.00
2018-08-25T10:39:42.141Z,13560.00
2018-08-25T10:40:42.082Z,45408.00
2018-08-25T10:41:42.094Z,49088.00
2018-08-25T10:42:42.022Z,52224.00
2018-08-25T10:43:41.992Z,56704.00
2018-08-25T10:44:41.983Z,59776.00
2018-08-25T10:45:41.923Z,32480.00
2018-08-25T10:46:41.893Z,33856.00
2018-08-25T10:47:41.861Z,47104.00
2018-08-25T10:48:41.838Z,24128.00
2018-08-25T10:49:41.807Z,27456.00
2018-08-25T10:50:41.795Z,52640.00
2018-08-25T10:51:41.747Z,23808.00
2018-08-25T10:52:41.707Z,57056.00
2018-08-25T10:53:41.675Z,55904.00
2018-08-25T10:54:41.647Z,51616.00
2018-08-25T10:55:41.635Z,53280.00
2018-08-25T10:56:41.592Z,54432.00
2018-08-25T10:57:41.567Z,19712.00
2018-08-25T10:58:41.522Z,49056.00
2018-08-25T10:59:41.492Z,12748.00
2018-08-25T11:00:41.659Z,13964.00
2018-08-25T11:01:41.441Z,52736.00
2018-08-25T11:02:41.406Z,43584.00
2018-08-25T11:03:41.372Z,50848.00
2018-08-25T11:04:41.336Z,50784.00
2018-08-25T11:05:41.311Z,51104.00
2018-08-25T11:06:41.293Z,49888.00
2018-08-25T11:07:41.243Z,48864.00
2018-08-25T11:08:41.225Z,47648.00
2018-08-25T11:09:41.191Z,50080.00
2018-08-25T11:10:41.158Z,51904.00
2018-08-25T11:11:41.147Z,53504.00
2018-08-25T11:12:41.090Z,36032.00
2018-08-25T11:13:41.061Z,42752.00
2018-08-25T11:14:41.039Z,15972.00
2018-08-25T11:15:41.005Z,52000.00
2018-08-25T11:16:40.991Z,49728.00
2018-08-25T11:17:40.943Z,14296.00
2018-08-25T11:18:40.908Z,19584.00
2018-08-25T11:19:40.880Z,16544.00
2018-08-25T11:20:40.858Z,11864.00
2018-08-25T11:21:40.850Z,9868.00
2018-08-25T11:22:40.797Z,10208.00
2018-08-25T11:23:40.789Z,11768.00
2018-08-25T11:24:40.732Z,12912.00
2018-08-25T11:25:40.693Z,13540.00
2018-08-25T11:26:40.688Z,13648.00
2018-08-25T11:27:40.632Z,15960.00
2018-08-25T11:28:40.604Z,21856.00
2018-08-25T11:29:40.576Z,47776.00
2018-08-25T11:30:40.534Z,46048.00
2018-08-25T11:31:40.503Z,45344.00
2018-08-25T11:32:40.499Z,43520.00
2018-08-25T11:33:40.449Z,43488.00
2018-08-25T11:34:40.416Z,12388.00
2018-08-25T11:35:40.384Z,44768.00
2018-08-25T11:36:40.352Z,43488.00
2018-08-25T11:37:40.410Z,42304.00
2018-08-25T11:38:40.275Z,26016.00
2018-08-25T11:39:40.247Z,39040.00
2018-08-25T11:40:40.221Z,27936.00
2018-08-25T11:41:40.189Z,56768.00
2018-08-25T11:42:40.159Z,20992.00
2018-08-25T11:43:40.144Z,18720.00
2018-08-25T11:44:40.094Z,17088.00
2018-08-25T11:45:40.055Z,16100.00
2018-08-25T11:46:40.032Z,13712.00
2018-08-25T11:47:39.998Z,10148.00
2018-08-25T11:48:39.981Z,7224.00
2018-08-25T11:49:39.926Z,5832.00
2018-08-25T11:50:39.893Z,5572.00
2018-08-25T11:51:39.866Z,5716.00
2018-08-25T11:52:39.837Z,6512.00
2018-08-25T11:53:39.827Z,8192.00
2018-08-25T11:54:39.771Z,11184.00
2018-08-25T11:55:39.739Z,16544.00
2018-08-25T11:56:39.702Z,20064.00
2018-08-25T11:57:39.664Z,18496.00
2018-08-25T11:58:39.655Z,20352.00
2018-08-25T11:59:39.598Z,30880.00
2018-08-25T12:00:39.570Z,47616.00
2018-08-25T12:01:39.537Z,49184.00
2018-08-25T12:02:39.497Z,47232.00
2018-08-25T12:03:39.503Z,46752.00
2018-08-25T12:04:39.459Z,49120.00
2018-08-25T12:05:39.400Z,51744.00
2018-08-25T12:06:39.369Z,42432.00
2018-08-25T12:07:39.331Z,19904.00
2018-08-25T12:08:39.292Z,28224.00
2018-08-25T12:09:39.432Z,19584.00
2018-08-25T12:10:39.227Z,47008.00
2018-08-25T12:11:39.194Z,23744.00
2018-08-25T12:12:39.166Z,26208.00
2018-08-25T12:13:39.136Z,24000.00
2018-08-25T12:14:39.128Z,18720.00
2018-08-25T12:15:39.068Z,18208.00
2018-08-25T12:16:39.028Z,27136.00
2018-08-25T12:17:38.994Z,21216.00
2018-08-25T12:18:38.966Z,23936.00
2018-08-25T12:19:38.935Z,20736.00
2018-08-25T12:20:38.917Z,17312.00
2018-08-25T12:21:38.861Z,12896.00